Main page
METAR-TAF:

METAR-TAF

Airports :

Cape Town International Airport

Cape Town, South Africa

latitude: 33-59S, longitude: 018-36E, elevation: 42 m

Current weather observation

The report was made 19 minutes ago, at 23:06 UTC
Wind 7 kt from the South/Southwest
Temperature 15°C
Humidity 100%
Pressure 1022 hPa
Visibility 10 km or more
no clouds below 1500 m and no cumulonimbus

METAR: FACT 212306Z 21007KT CAVOK 15/15 Q1022

Time: 01:25 (23:25 UTC)

Forecast

The report was made 7 hours and 25 minutes ago, at 16:00 UTC
Forecast valid from 21 at 18 UTC to 22 at 24 UTC
Wind 3 kt from variable directions
Visibility 10 km or more
Broken clouds at a height of 3500 ft
Probability 30% :
Temporary
from 22 at 02 UTC to 22 at 07 UTC
Visibility: 2000 m
mist
From 22 at 0700 UTC
Wind 8 kt from the Southwest
Visibility 10 km or more
no clouds below 1500 m and no cumulonimbus

TAF: FACT 211600Z 2118/2224 VRB03KT 9999 BKN035 TX22/2212Z TN13/2205Z PROB30 TEMPO 2202/2207 2000 BR NSC FM220700 22008KT CAVOK

Weather observations and forecasts of more than 4000 airports (METAR and TAF reports).

The available stations are represented by yellow and red dots on the map.

Hover mouse over dot to see the name of the station.

Then click to see weather observations and forecasts.

To change the map : click on the green buttons with a black cross to zoom in, on the green button with a dash to zoom out, or on the green arrows for adjacent maps.


METAR-TAF: